Time;durP1;ratioP1;P1;durP2;ratioP2;P2;SDS_P1;SDS_P2;PMS_P1;PMS_P2;Temp;Humidity;BMP_temperature;BMP_pressure;BME280_temperature;BME280_humidity;BME280_pressure;Samples;Min_cycle;Max_cycle;Signal;HPM_P1;HPM_P2
2021/03/28 00:02:52;;;;;;;;;;;;;;;7.45;58.30;102264.22;1935492;74;20101;-84
2021/03/28 00:09:38;;;;;;;;;;;;;;;7.46;58.17;102268.95;1936368;74;20141;-84
2021/03/28 00:12:32;;;;;;;;;;;;;;;7.37;58.30;102263.57;1935197;74;20165;-80
2021/03/28 00:15:08;;;;;;;;;;;;;;;7.30;58.58;102259.92;1926643;74;20197;-83
2021/03/28 00:17:50;;;;;;;;;;;;;;;7.22;58.94;102256.69;1923119;74;20169;-81
2021/03/28 00:20:21;;;;;;;;;;;;;;;7.16;59.21;102251.69;1927131;74;20212;-84
2021/03/28 00:23:04;;;;;;;;;;;;;;;7.11;59.44;102258.28;1926424;74;20181;-82
2021/03/28 00:25:38;;;;;;;;;;;;;;;7.06;59.71;102252.38;1928232;74;20114;-79
2021/03/28 00:28:09;;;;;;;;;;;;;;;7.02;59.91;102257.20;1930947;74;21130;-79
2021/03/28 00:30:41;;;;;;;;;;;;;;;6.99;60.10;102259.86;1925339;74;20216;-81
2021/03/28 00:33:14;;;;;;;;;;;;;;;6.97;60.19;102259.06;1927533;74;20280;-82
2021/03/28 00:35:57;;;;;;;;;;;;;;;6.97;60.17;102261.65;1926986;74;20213;-84
2021/03/28 00:38:29;;;;;;;;;;;;;;;6.95;60.22;102265.16;1927892;74;20129;-81
2021/03/28 00:41:15;;;;;;;;;;;;;;;6.92;60.31;102257.06;1927071;74;21186;-82
2021/03/28 00:44:00;;;;;;;;;;;;;;;6.90;60.29;102258.38;1927673;74;20579;-85
2021/03/28 00:46:41;;;;;;;;;;;;;;;6.86;60.50;102258.52;1928303;74;20122;-82
2021/03/28 00:49:13;;;;;;;;;;;;;;;6.80;60.66;102254.33;1927821;74;20145;-82
2021/03/28 00:51:46;;;;;;;;;;;;;;;6.76;60.78;102261.77;1918530;74;20261;-83
2021/03/28 00:54:26;;;;;;;;;;;;;;;6.75;60.81;102257.48;1926737;74;22238;-83
2021/03/28 00:56:58;;;;;;;;;;;;;;;6.75;60.89;102254.05;1925471;74;20142;-84
2021/03/28 00:59:40;;;;;;;;;;;;;;;6.73;60.89;102254.07;1927038;74;20518;-82
2021/03/28 01:02:35;;;;;;;;;;;;;;;6.73;60.94;102255.36;1926781;74;20145;-85
2021/03/28 01:05:14;;;;;;;;;;;;;;;6.72;60.97;102255.41;1926978;74;20173;-84
2021/03/28 01:07:45;;;;;;;;;;;;;;;6.74;60.93;102254.92;1927155;74;21130;-86
2021/03/28 01:10:36;;;;;;;;;;;;;;;6.72;61.00;102257.55;1928376;74;20755;-86
2021/03/28 01:13:43;;;;;;;;;;;;;;;6.73;61.04;102256.65;1928944;74;20113;-81
2021/03/28 01:16:37;;;;;;;;;;;;;;;6.76;60.97;102253.17;1931399;74;20185;-82
2021/03/28 01:19:20;;;;;;;;;;;;;;;6.72;61.06;102252.83;1927263;74;20253;-85
2021/03/28 01:21:59;;;;;;;;;;;;;;;6.72;61.06;102249.81;1927175;74;20212;-83
2021/03/28 01:24:48;;;;;;;;;;;;;;;6.72;61.04;102249.81;1922971;74;20185;-84
2021/03/28 01:27:35;;;;;;;;;;;;;;;6.73;61.14;102252.78;1927134;74;20200;-84
2021/03/28 01:30:07;;;;;;;;;;;;;;;6.73;61.10;102255.36;1927234;74;20249;-82
2021/03/28 01:32:46;;;;;;;;;;;;;;;6.70;61.19;102248.17;1926821;74;20209;-82
2021/03/28 01:35:45;;;;;;;;;;;;;;;6.68;61.25;102250.77;1901470;74;21356;-83
2021/03/28 01:38:29;;;;;;;;;;;;;;;6.63;61.40;102251.77;1927089;74;20115;-83
2021/03/28 01:41:19;;;;;;;;;;;;;;;6.57;61.60;102247.62;1928076;74;20176;-83
2021/03/28 01:44:11;;;;;;;;;;;;;;;6.56;61.71;102256.23;1926532;74;20519;-83
2021/03/28 01:47:04;;;;;;;;;;;;;;;6.54;61.93;102252.82;1926683;74;20316;-81
2021/03/28 01:49:50;;;;;;;;;;;;;;;6.51;62.06;102253.36;1922980;74;21184;-83
2021/03/28 01:52:25;;;;;;;;;;;;;;;6.47;62.25;102253.02;1926304;74;20227;-82
2021/03/28 01:54:56;;;;;;;;;;;;;;;6.42;62.42;102250.54;1926602;74;20146;-80
2021/03/28 01:57:40;;;;;;;;;;;;;;;6.42;62.54;102249.25;1926674;74;20125;-83
2021/03/28 02:00:27;;;;;;;;;;;;;;;6.41;62.58;102253.17;1931366;73;20129;-79
2021/03/28 02:02:59;;;;;;;;;;;;;;;6.40;62.68;102251.03;1928831;74;21130;-82
2021/03/28 02:05:49;;;;;;;;;;;;;;;6.37;62.75;102251.95;1926869;74;20274;-81
2021/03/28 02:08:23;;;;;;;;;;;;;;;6.36;62.82;102253.27;1926619;74;20145;-80
2021/03/28 02:11:26;;;;;;;;;;;;;;;6.34;62.92;102260.20;1927155;74;20102;-78
2021/03/28 02:14:30;;;;;;;;;;;;;;;6.31;63.26;102261.56;1926614;74;20229;-80
2021/03/28 02:17:01;;;;;;;;;;;;;;;6.25;63.64;102254.79;1926637;74;21171;-80
2021/03/28 02:19:31;;;;;;;;;;;;;;;6.22;63.77;102259.20;1926414;74;20243;-80
2021/03/28 02:22:27;;;;;;;;;;;;;;;6.19;64.13;102251.06;1926731;74;20121;-79
2021/03/28 02:25:20;;;;;;;;;;;;;;;6.15;64.44;102254.62;1868356;74;20149;-79
2021/03/28 02:28:01;;;;;;;;;;;;;;;6.08;64.83;102256.06;1926612;74;20213;-79
2021/03/28 02:30:44;;;;;;;;;;;;;;;6.00;65.25;102257.51;1925700;74;21180;-80
2021/03/28 02:33:25;;;;;;;;;;;;;;;5.91;65.42;102256.86;1926589;74;20147;-79
2021/03/28 02:36:13;;;;;;;;;;;;;;;5.78;65.63;102260.95;1926805;74;20498;-79
2021/03/28 02:39:07;;;;;;;;;;;;;;;5.68;66.04;102253.47;1902121;74;20791;-80
2021/03/28 02:42:05;;;;;;;;;;;;;;;5.58;66.50;102257.11;1927148;74;20229;-78
2021/03/28 02:45:00;;;;;;;;;;;;;;;5.49;66.82;102264.55;1930665;74;21180;-78
2021/03/28 02:47:40;;;;;;;;;;;;;;;5.41;67.45;102256.58;1914498;74;20476;-81
2021/03/28 02:50:27;;;;;;;;;;;;;;;5.32;67.65;102256.32;1927566;74;20280;-81
2021/03/28 02:53:25;;;;;;;;;;;;;;;5.30;67.63;102253.76;1927425;74;20106;-82
2021/03/28 02:56:22;;;;;;;;;;;;;;;5.37;67.67;102253.20;1927208;74;20181;-83
2021/03/28 02:59:00;;;;;;;;;;;;;;;5.47;67.37;102252.16;1926683;74;21248;-82
2021/03/28 03:01:57;;;;;;;;;;;;;;;5.60;66.67;102256.63;1868942;74;20503;-81
2021/03/28 03:04:35;;;;;;;;;;;;;;;5.69;66.23;102255.14;1926948;74;20118;-83
2021/03/28 03:07:15;;;;;;;;;;;;;;;5.80;65.65;102254.06;1926892;74;20582;-82
2021/03/28 03:10:03;;;;;;;;;;;;;;;5.85;65.27;102251.38;1926705;74;20213;-82
2021/03/28 03:12:42;;;;;;;;;;;;;;;5.88;65.04;102253.91;1926994;74;20142;-78
2021/03/28 03:15:35;;;;;;;;;;;;;;;5.91;65.06;102249.98;1926757;74;20245;-80
2021/03/28 03:18:16;;;;;;;;;;;;;;;5.87;65.20;102247.52;1926834;74;20126;-81
2021/03/28 03:21:06;;;;;;;;;;;;;;;5.77;65.38;102248.98;1922997;74;20553;-81
2021/03/28 03:24:04;;;;;;;;;;;;;;;5.71;65.67;102257.27;1926803;74;20137;-81
2021/03/28 03:26:56;;;;;;;;;;;;;;;5.71;65.77;102255.52;1928001;74;22078;-78
2021/03/28 03:29:53;;;;;;;;;;;;;;;5.73;65.92;102259.36;1930622;74;20149;-79
2021/03/28 03:32:31;;;;;;;;;;;;;;;5.69;66.21;102262.44;1926522;74;20173;-79
2021/03/28 03:35:02;;;;;;;;;;;;;;;5.60;66.42;102267.78;1926325;74;20181;-79
2021/03/28 03:37:48;;;;;;;;;;;;;;;5.49;66.62;102265.02;1926526;74;20241;-78
2021/03/28 03:40:32;;;;;;;;;;;;;;;5.36;66.89;102264.84;1926586;74;21353;-78
2021/03/28 03:43:18;;;;;;;;;;;;;;;5.15;67.19;102269.92;1926499;74;20118;-79
2021/03/28 03:46:04;;;;;;;;;;;;;;;4.95;67.75;102263.84;1925749;74;20130;-79
2021/03/28 03:48:55;;;;;;;;;;;;;;;4.84;68.47;102264.48;1926506;74;20137;-77
2021/03/28 03:51:53;;;;;;;;;;;;;;;4.78;68.90;102269.73;1926397;74;20122;-77
2021/03/28 03:54:41;;;;;;;;;;;;;;;4.72;69.19;102271.94;1926575;74;22061;-77
2021/03/28 03:57:44;;;;;;;;;;;;;;;4.64;69.24;102281.52;1926415;74;20260;-77
2021/03/28 04:00:17;;;;;;;;;;;;;;;4.52;69.51;102283.42;1926428;74;20153;-76
2021/03/28 04:03:11;;;;;;;;;;;;;;;4.40;70.07;102283.19;1926568;74;20698;-77
2021/03/28 04:05:58;;;;;;;;;;;;;;;4.27;70.33;102284.23;1926395;74;20141;-77
2021/03/28 04:08:38;;;;;;;;;;;;;;;4.14;70.77;102282.27;1926668;74;21174;-77
2021/03/28 04:11:40;;;;;;;;;;;;;;;4.05;71.41;102290.07;1930504;74;20106;-78
2021/03/28 04:14:34;;;;;;;;;;;;;;;4.03;71.93;102281.97;1928024;74;20141;-76
2021/03/28 04:17:31;;;;;;;;;;;;;;;4.04;72.10;102291.39;1926402;74;20673;-78
2021/03/28 04:20:28;;;;;;;;;;;;;;;4.04;72.40;102288.39;1926239;74;20507;-78
2021/03/28 04:23:18;;;;;;;;;;;;;;;4.04;72.54;102290.96;1926326;74;20252;-77
2021/03/28 04:25:53;;;;;;;;;;;;;;;4.04;72.76;102288.39;1926485;74;20185;-78
2021/03/28 04:28:43;;;;;;;;;;;;;;;4.05;73.07;102284.93;1926430;74;20130;-77
2021/03/28 04:31:43;;;;;;;;;;;;;;;4.08;73.27;102294.34;1926231;74;20150;-78
2021/03/28 04:34:16;;;;;;;;;;;;;;;4.09;73.19;102299.88;1926351;74;20701;-76
2021/03/28 04:36:57;;;;;;;;;;;;;;;4.04;73.35;102298.66;1926130;74;21228;-79
2021/03/28 04:39:51;;;;;;;;;;;;;;;4.04;73.54;102299.95;1926195;74;20297;-77
2021/03/28 04:42:40;;;;;;;;;;;;;;;4.04;73.66;102308.94;1926551;74;20498;-78
2021/03/28 04:45:32;;;;;;;;;;;;;;;4.03;73.56;102305.95;1872832;74;20225;-78
2021/03/28 04:48:09;;;;;;;;;;;;;;;4.00;73.69;102307.27;1926257;74;20273;-77
2021/03/28 04:50:46;;;;;;;;;;;;;;;4.00;73.72;102311.55;1926616;74;21187;-77
2021/03/28 04:53:40;;;;;;;;;;;;;;;4.03;73.96;102315.37;1930027;74;20129;-77
2021/03/28 04:56:24;;;;;;;;;;;;;;;4.07;74.28;102326.03;1929982;74;20173;-77
2021/03/28 04:59:11;;;;;;;;;;;;;;;4.11;74.47;102325.98;1926649;74;20146;-77
2021/03/28 05:02:02;;;;;;;;;;;;;;;4.17;74.68;102334.03;1926455;74;20209;-78
2021/03/28 05:04:36;;;;;;;;;;;;;;;4.26;74.69;102328.77;1926390;74;21122;-78
2021/03/28 05:07:26;;;;;;;;;;;;;;;4.33;74.69;102334.68;1926482;74;20296;-78
2021/03/28 05:10:05;;;;;;;;;;;;;;;4.42;74.75;102326.84;1926522;74;20543;-78
2021/03/28 05:12:42;;;;;;;;;;;;;;;4.55;74.60;102331.79;1925337;74;20509;-78
2021/03/28 05:15:33;;;;;;;;;;;;;;;4.65;74.60;102333.36;1926398;74;20253;-77
2021/03/28 05:18:20;;;;;;;;;;;;;;;4.73;74.37;102337.94;1926668;74;22257;-76
2021/03/28 05:21:11;;;;;;;;;;;;;;;4.85;74.06;102338.63;1926302;74;20296;-78
2021/03/28 05:23:57;;;;;;;;;;;;;;;4.92;74.13;102343.64;1926560;74;20256;-78
2021/03/28 05:26:50;;;;;;;;;;;;;;;4.99;74.35;102337.53;1926787;74;20617;-78
2021/03/28 05:29:39;;;;;;;;;;;;;;;5.07;74.21;102341.27;1926823;74;20129;-77
2021/03/28 05:32:28;;;;;;;;;;;;;;;5.12;74.09;102340.75;1926641;74;21185;-78
2021/03/28 05:35:15;;;;;;;;;;;;;;;5.22;73.85;102343.15;1901350;74;20572;-78
2021/03/28 05:38:01;;;;;;;;;;;;;;;5.31;73.47;102345.55;1927683;74;20117;-78
2021/03/28 05:40:38;;;;;;;;;;;;;;;5.41;73.58;102340.24;1926720;74;20177;-78
2021/03/28 05:43:24;;;;;;;;;;;;;;;5.54;72.98;102343.86;1926541;74;20209;-78
2021/03/28 05:46:12;;;;;;;;;;;;;;;5.63;72.51;102342.83;1926526;74;22265;-79
2021/03/28 05:49:10;;;;;;;;;;;;;;;5.71;72.21;102349.98;1926799;74;20231;-77
2021/03/28 05:52:06;;;;;;;;;;;;;;;5.79;71.70;102354.55;1926602;74;20213;-77
2021/03/28 05:54:49;;;;;;;;;;;;;;;5.88;71.31;102350.96;1926505;74;20122;-79
2021/03/28 05:57:54;;;;;;;;;;;;;;;5.94;70.99;102354.27;1926687;74;20201;-78
2021/03/28 06:00:47;;;;;;;;;;;;;;;6.04;70.63;102352.35;1926616;74;21185;-78
2021/03/28 06:03:53;;;;;;;;;;;;;;;6.15;70.08;102352.56;1926525;74;20259;-78
2021/03/28 06:07:00;;;;;;;;;;;;;;;6.29;69.65;102371.58;1926701;74;20126;-78
2021/03/28 06:09:56;;;;;;;;;;;;;;;6.41;69.42;102366.63;1780098;80;20627;-78
2021/03/28 06:12:38;;;;;;;;;;;;;;;6.51;69.19;102363.80;1780090;80;20222;-78
2021/03/28 06:15:27;;;;;;;;;;;;;;;6.64;68.49;102370.81;1781134;80;21374;-77
2021/03/28 06:18:17;;;;;;;;;;;;;;;6.75;68.09;102366.27;1784019;80;20150;-77
2021/03/28 06:20:52;;;;;;;;;;;;;;;6.88;67.80;102369.83;1782910;80;20142;-77
2021/03/28 06:23:46;;;;;;;;;;;;;;;7.01;67.76;102369.09;1781322;80;20565;-78
2021/03/28 06:26:50;;;;;;;;;;;;;;;7.16;67.34;102367.86;1781157;80;20316;-78
2021/03/28 06:29:27;;;;;;;;;;;;;;;7.31;66.83;102367.03;1781440;80;21296;-77
2021/03/28 06:32:18;;;;;;;;;;;;;;;7.51;66.08;102366.96;1780830;80;20602;-78
2021/03/28 06:35:07;;;;;;;;;;;;;;;7.65;65.13;102370.90;1779962;80;20114;-78
2021/03/28 06:37:44;;;;;;;;;;;;;;;7.82;64.82;102369.98;1780217;80;20130;-77
2021/03/28 06:40:39;;;;;;;;;;;;;;;7.99;64.41;102369.08;1777321;80;20166;-77
2021/03/28 06:43:47;;;;;;;;;;;;;;;8.17;64.20;102369.45;1779954;80;21210;-78
2021/03/28 06:46:28;;;;;;;;;;;;;;;8.36;64.04;102365.47;1780082;80;20153;-77
2021/03/28 06:49:02;;;;;;;;;;;;;;;8.57;63.58;102361.38;1779921;80;20217;-77
2021/03/28 06:51:43;;;;;;;;;;;;;;;8.73;62.91;102347.06;1780301;80;20126;-78
2021/03/28 06:54:48;;;;;;;;;;;;;;;8.92;62.27;102353.35;1780122;80;20241;-78
2021/03/28 06:57:22;;;;;;;;;;;;;;;9.12;61.93;102347.53;1780894;80;21368;-78
2021/03/28 07:00:15;;;;;;;;;;;;;;;9.34;60.83;102340.28;1784199;79;20111;-78
2021/03/28 07:03:13;;;;;;;;;;;;;;;9.52;60.09;102346.56;1780455;80;20548;-78
2021/03/28 07:06:08;;;;;;;;;;;;;;;9.74;59.48;102347.94;1779879;80;20198;-77
2021/03/28 07:09:13;;;;;;;;;;;;;;;9.95;58.80;102345.89;1811781;78;20231;-79
2021/03/28 07:12:01;;;;;;;;;;;;;;;10.15;57.64;102343.89;1835577;78;20249;-79
2021/03/28 07:14:51;;;;;;;;;;;;;;;10.33;56.96;102344.04;1835488;78;20152;-79
2021/03/28 07:17:36;;;;;;;;;;;;;;;10.48;56.21;102341.30;1835305;78;20200;-77
2021/03/28 07:20:21;;;;;;;;;;;;;;;10.60;55.83;102346.84;1824166;78;20216;-78
2021/03/28 07:22:58;;;;;;;;;;;;;;;10.69;54.56;102343.52;1824219;78;20593;-76
2021/03/28 07:25:55;;;;;;;;;;;;;;;10.75;54.10;102346.72;1824515;78;21192;-77
2021/03/28 07:28:42;;;;;;;;;;;;;;;10.81;53.89;102342.57;1824360;78;20215;-78
2021/03/28 07:31:41;;;;;;;;;;;;;;;10.88;53.94;102353.56;1824431;78;20220;-79
2021/03/28 07:34:45;;;;;;;;;;;;;;;10.97;53.58;102347.98;1823599;78;20244;-77
2021/03/28 07:37:42;;;;;;;;;;;;;;;11.08;52.71;102348.37;1824145;78;20227;-77
2021/03/28 07:40:46;;;;;;;;;;;;;;;11.17;52.59;102350.59;1825552;78;21228;-76
2021/03/28 07:43:49;;;;;;;;;;;;;;;11.27;51.88;102355.80;1828498;78;20117;-77
2021/03/28 07:46:45;;;;;;;;;;;;;;;11.36;51.58;102356.70;1824310;78;20128;-77
2021/03/28 07:49:32;;;;;;;;;;;;;;;11.45;51.33;102355.48;1824137;78;20287;-78
2021/03/28 07:52:03;;;;;;;;;;;;;;;11.56;51.66;102357.16;1735202;78;20247;-77
2021/03/28 07:54:59;;;;;;;;;;;;;;;11.71;51.51;102357.81;1824115;78;21172;-79
2021/03/28 07:57:36;;;;;;;;;;;;;;;11.78;50.81;102357.09;1823891;78;20222;-80
2021/03/28 08:00:19;;;;;;;;;;;;;;;11.90;50.66;102357.39;1824296;78;20280;-79
2021/03/28 08:03:26;;;;;;;;;;;;;;;12.05;50.67;102354.12;1824454;78;20559;-79
2021/03/28 08:06:22;;;;;;;;;;;;;;;12.18;50.41;102356.56;1824297;78;20219;-79
2021/03/28 08:09:26;;;;;;;;;;;;;;;12.33;49.93;102358.05;1828198;78;21187;-76
2021/03/28 08:12:23;;;;;;;;;;;;;;;12.46;49.11;102357.42;1831822;78;20469;-76
2021/03/28 08:15:30;;;;;;;;;;;;;;;12.55;48.68;102344.41;1809667;78;20215;-79
2021/03/28 08:18:22;;;;;;;;;;;;;;;12.69;48.58;102340.25;1831264;78;20164;-77
2021/03/28 08:21:10;;;;;;;;;;;;;;;12.92;48.57;102330.47;1830910;78;20214;-78
2021/03/28 08:23:58;;;;;;;;;;;;;;;13.19;48.32;102334.33;1834457;78;21364;-80
2021/03/28 08:26:40;;;;;;;;;;;;;;;13.45;48.32;102332.55;1835478;76;20195;-81
2021/03/28 08:29:37;;;;;;;;;;;;;;;13.59;48.09;102331.36;1831971;78;20316;-79
2021/03/28 08:32:16;;;;;;;;;;;;;;;13.71;46.39;102322.06;1831881;78;20137;-85
2021/03/28 08:35:08;;;;;;;;;;;;;;;13.88;45.69;102322.48;1831755;78;20533;-82
2021/03/28 08:38:13;;;;;;;;;;;;;;;13.93;44.14;102317.84;1831540;78;21260;-79
2021/03/28 08:40:58;;;;;;;;;;;;;;;14.04;43.63;102320.73;1832034;78;20545;-81
2021/03/28 08:44:00;;;;;;;;;;;;;;;14.15;41.52;102319.22;1831934;78;20141;-82
2021/03/28 08:47:08;;;;;;;;;;;;;;;14.15;41.27;102312.69;1792689;80;20150;-84
2021/03/28 08:49:43;;;;;;;;;;;;;;;14.14;42.05;102317.98;1834464;78;20140;-79
2021/03/28 08:52:49;;;;;;;;;;;;;;;14.24;42.63;102310.03;1834468;78;21231;-78
2021/03/28 08:55:49;;;;;;;;;;;;;;;14.37;42.71;102314.14;1738923;82;20213;-78
2021/03/28 08:58:22;;;;;;;;;;;;;;;14.53;42.96;102313.66;1827020;77;20188;-78
2021/03/28 09:01:00;;;;;;;;;;;;;;;14.65;42.45;102308.59;1834347;78;20227;-78
2021/03/28 09:04:00;;;;;;;;;;;;;;;14.70;42.44;102311.80;1835281;78;20200;-76
2021/03/28 09:06:49;;;;;;;;;;;;;;;14.77;42.10;102309.67;1832902;78;21193;-83
2021/03/28 09:09:39;;;;;;;;;;;;;;;14.74;42.38;102304.63;1834054;78;20867;-76
2021/03/28 09:12:28;;;;;;;;;;;;;;;14.72;42.49;102306.47;1833410;78;20112;-78
2021/03/28 09:15:24;;;;;;;;;;;;;;;14.71;42.34;102299.55;1831832;78;20698;-78
2021/03/28 09:18:01;;;;;;;;;;;;;;;14.73;42.06;102300.32;1831736;78;20148;-77
2021/03/28 09:20:57;;;;;;;;;;;;;;;14.77;41.51;102301.34;1804508;78;21208;-80
2021/03/28 09:23:56;;;;;;;;;;;;;;;14.84;41.76;102300.06;1832119;78;20124;-76
2021/03/28 09:26:33;;;;;;;;;;;;;;;14.97;41.62;102296.27;1832064;78;20152;-83
2021/03/28 09:29:35;;;;;;;;;;;;;;;15.14;40.93;102295.29;1832062;78;20544;-77
2021/03/28 09:32:24;;;;;;;;;;;;;;;15.19;40.36;102291.46;1832148;78;20231;-78
2021/03/28 09:35:14;;;;;;;;;;;;;;;15.25;38.12;102301.55;1831837;78;21199;-82
2021/03/28 09:38:14;;;;;;;;;;;;;;;15.25;38.11;102291.09;1828203;78;20290;-81
2021/03/28 09:41:04;;;;;;;;;;;;;;;15.32;37.99;102291.11;1791063;80;20233;-78
2021/03/28 09:44:05;;;;;;;;;;;;;;;15.46;37.32;102286.83;1829899;78;20148;-82
2021/03/28 09:46:42;;;;;;;;;;;;;;;15.54;36.50;102284.14;1831769;78;20267;-76
2021/03/28 09:49:35;;;;;;;;;;;;;;;15.58;36.06;102288.25;1829225;78;20160;-78
2021/03/28 09:52:16;;;;;;;;;;;;;;;16.03;35.45;102281.10;1831779;78;20223;-81
2021/03/28 09:55:21;;;;;;;;;;;;;;;17.11;33.00;102278.31;1833243;78;20140;-86
2021/03/28 09:58:43;;;;;;;;;;;;;;;17.88;32.75;102270.77;1834273;76;20120;-76
2021/03/28 10:01:22;;;;;;;;;;;;;;;18.90;30.78;102268.89;1829100;78;20290;-80
2021/03/28 10:03:57;;;;;;;;;;;;;;;20.00;28.87;102264.64;1831867;78;21177;-77
2021/03/28 10:06:27;;;;;;;;;;;;;;;20.63;26.39;102260.36;1831946;78;20221;-84
2021/03/28 10:09:15;;;;;;;;;;;;;;;21.10;26.14;102257.71;1831698;78;20140;-80
2021/03/28 10:11:51;;;;;;;;;;;;;;;21.46;25.96;102257.20;1831787;78;20207;-77
2021/03/28 10:14:46;;;;;;;;;;;;;;;21.87;25.76;102261.50;1832011;78;20494;-81
2021/03/28 10:17:24;;;;;;;;;;;;;;;22.53;23.81;102253.30;1831865;78;21353;-75
2021/03/28 10:19:53;;;;;;;;;;;;;;;23.34;23.81;102257.69;1831800;78;20132;-76
2021/03/28 10:22:48;;;;;;;;;;;;;;;24.10;23.02;102253.32;1831693;78;20136;-76
2021/03/28 10:25:49;;;;;;;;;;;;;;;25.06;22.65;102245.86;1832514;78;20199;-88
2021/03/28 10:28:54;;;;;;;;;;;;;;;25.55;20.82;102240.32;1832934;78;20140;-77
2021/03/28 10:31:37;;;;;;;;;;;;;;;25.34;20.76;102237.19;1832011;78;21258;-74
2021/03/28 10:34:15;;;;;;;;;;;;;;;25.05;21.45;102226.91;1832080;78;20278;-83
2021/03/28 10:37:06;;;;;;;;;;;;;;;25.57;20.36;102229.51;1832449;78;20273;-75
2021/03/28 10:39:38;;;;;;;;;;;;;;;25.64;20.65;102232.70;1831428;78;20215;-77
2021/03/28 10:42:20;;;;;;;;;;;;;;;25.84;20.49;102227.11;1834968;78;20203;-82
2021/03/28 10:45:13;;;;;;;;;;;;;;;26.28;20.00;102229.36;1833141;78;22295;-79
2021/03/28 10:47:53;;;;;;;;;;;;;;;26.43;19.72;102225.53;1831844;78;20295;-78
2021/03/28 10:50:47;;;;;;;;;;;;;;;26.73;19.95;102225.34;1812409;78;20129;-76
2021/03/28 10:53:35;;;;;;;;;;;;;;;27.38;19.19;102238.53;1832434;78;20637;-74
2021/03/28 10:56:44;;;;;;;;;;;;;;;27.89;18.51;102235.80;1812143;78;20282;-74
2021/03/28 10:59:30;;;;;;;;;;;;;;;28.35;18.41;102225.46;1831911;78;21186;-75
2021/03/28 11:02:25;;;;;;;;;;;;;;;28.94;17.67;102223.77;1831778;78;20227;-81
2021/03/28 11:05:13;;;;;;;;;;;;;;;28.94;16.90;102221.09;1830073;78;20258;-77
2021/03/28 11:08:00;;;;;;;;;;;;;;;28.42;17.42;102217.06;1832041;78;20302;-82
2021/03/28 11:10:45;;;;;;;;;;;;;;;28.52;16.42;102224.83;1825503;78;20240;-74
2021/03/28 11:13:35;;;;;;;;;;;;;;;28.05;16.34;102229.86;1824131;78;21257;-79
2021/03/28 11:16:26;;;;;;;;;;;;;;;27.82;16.24;102229.00;1824489;78;20208;-75
2021/03/28 11:19:31;;;;;;;;;;;;;;;27.76;16.56;102231.84;1824572;78;20132;-78
2021/03/28 11:22:15;;;;;;;;;;;;;;;27.57;15.77;102227.47;1822869;78;20447;-76
2021/03/28 11:24:55;;;;;;;;;;;;;;;27.33;16.13;102220.37;1824323;78;20763;-81
2021/03/28 11:27:35;;;;;;;;;;;;;;;27.84;16.27;102211.80;1824292;78;21262;-78
2021/03/28 11:30:16;;;;;;;;;;;;;;;28.08;15.40;102201.47;1826207;78;20156;-76
2021/03/28 11:33:00;;;;;;;;;;;;;;;28.05;15.09;102197.83;1826884;78;20192;-76
2021/03/28 11:35:48;;;;;;;;;;;;;;;27.41;15.33;102196.33;1825457;78;20133;-78
2021/03/28 11:38:20;;;;;;;;;;;;;;;27.21;15.84;102194.61;1821128;78;20212;-74
2021/03/28 11:40:54;;;;;;;;;;;;;;;27.31;15.62;102198.40;1824199;78;21133;-77
2021/03/28 11:43:32;;;;;;;;;;;;;;;27.49;15.08;102190.16;1801945;78;20905;-78
2021/03/28 11:46:06;;;;;;;;;;;;;;;27.65;15.18;102183.41;1822438;78;20474;-81
2021/03/28 11:48:49;;;;;;;;;;;;;;;27.47;14.81;102185.02;1824187;78;20775;-80
2021/03/28 11:51:39;;;;;;;;;;;;;;;27.22;14.73;102179.42;1821109;78;20112;-78
2021/03/28 11:54:15;;;;;;;;;;;;;;;27.19;15.61;102173.94;1824297;78;21129;-76
2021/03/28 11:57:02;;;;;;;;;;;;;;;26.76;16.29;102182.39;1824478;78;20120;-78
2021/03/28 11:59:54;;;;;;;;;;;;;;;26.33;16.13;102170.78;1824901;78;20144;-76
2021/03/28 12:02:26;;;;;;;;;;;;;;;25.24;16.91;102181.51;1825188;78;20164;-78
2021/03/28 12:05:00;;;;;;;;;;;;;;;24.28;18.45;102168.96;1824314;78;20200;-74
2021/03/28 12:07:42;;;;;;;;;;;;;;;24.20;19.29;102164.41;1824234;78;21191;-79
2021/03/28 12:10:31;;;;;;;;;;;;;;;24.24;20.27;102160.47;1828813;78;20562;-76
2021/03/28 12:13:05;;;;;;;;;;;;;;;24.19;20.15;102154.77;1804699;78;20144;-81
2021/03/28 12:15:48;;;;;;;;;;;;;;;24.66;20.02;102151.31;1831663;78;20132;-76
2021/03/28 12:18:26;;;;;;;;;;;;;;;25.03;19.89;102143.06;1831830;78;20108;-77
2021/03/28 12:21:08;;;;;;;;;;;;;;;24.72;20.19;102153.34;1832003;78;21129;-75
2021/03/28 12:23:46;;;;;;;;;;;;;;;24.52;20.37;102149.22;1831795;78;20593;-80
2021/03/28 12:26:26;;;;;;;;;;;;;;;24.56;20.05;102142.13;1830295;78;20231;-79
2021/03/28 12:29:01;;;;;;;;;;;;;;;24.85;20.45;102145.81;1832830;78;20219;-81
2021/03/28 12:31:37;;;;;;;;;;;;;;;25.66;19.61;102134.98;1835226;77;20152;-78
2021/03/28 12:34:27;;;;;;;;;;;;;;;25.99;18.73;102126.54;1833917;77;21209;-79
2021/03/28 12:37:04;;;;;;;;;;;;;;;25.77;19.59;102135.17;1832539;78;20666;-82
2021/03/28 12:39:37;;;;;;;;;;;;;;;25.68;19.30;102132.17;1832941;78;20248;-76
2021/03/28 12:42:21;;;;;;;;;;;;;;;26.10;18.88;102126.19;1831999;78;20243;-77
2021/03/28 12:44:52;;;;;;;;;;;;;;;25.84;19.43;102118.90;1831874;78;20218;-75
2021/03/28 12:47:25;;;;;;;;;;;;;;;25.60;19.96;102117.03;1832273;78;21357;-75
2021/03/28 12:49:56;;;;;;;;;;;;;;;25.65;19.72;102115.22;1831838;78;20266;-79
2021/03/28 12:52:46;;;;;;;;;;;;;;;25.78;19.58;102116.91;1832172;78;20179;-77
2021/03/28 12:55:39;;;;;;;;;;;;;;;25.97;19.10;102114.41;1831678;78;20212;-83
2021/03/28 12:58:18;;;;;;;;;;;;;;;26.41;18.97;102106.41;1831636;78;20231;-82
2021/03/28 13:01:00;;;;;;;;;;;;;;;27.13;18.74;102100.51;1831995;78;21199;-78
2021/03/28 13:03:33;;;;;;;;;;;;;;;27.30;17.98;102108.75;1831635;78;20216;-75
2021/03/28 13:06:24;;;;;;;;;;;;;;;27.13;18.31;102101.34;1831972;78;20124;-77
2021/03/28 13:09:18;;;;;;;;;;;;;;;26.74;18.55;102106.63;1831506;78;20148;-76
2021/03/28 13:11:53;;;;;;;;;;;;;;;25.68;19.17;102094.45;1829844;78;20140;-77
2021/03/28 13:14:39;;;;;;;;;;;;;;;24.51;20.25;102095.30;1829931;78;22129;-76
2021/03/28 13:17:28;;;;;;;;;;;;;;;23.59;21.51;102100.20;1829915;78;20112;-75
2021/03/28 13:20:23;;;;;;;;;;;;;;;23.26;21.76;102092.88;1830216;78;20128;-82
2021/03/28 13:22:51;;;;;;;;;;;;;;;23.15;22.18;102095.23;1829802;78;20148;-75
2021/03/28 13:25:29;;;;;;;;;;;;;;;23.15;22.51;102095.72;1830222;78;20232;-81
2021/03/28 13:28:12;;;;;;;;;;;;;;;23.31;22.51;102087.95;1830083;78;21111;-76
2021/03/28 13:30:42;;;;;;;;;;;;;;;23.58;22.69;102085.27;1829636;78;20287;-76
2021/03/28 13:33:33;;;;;;;;;;;;;;;23.74;22.70;102085.10;1830107;78;20227;-79
2021/03/28 13:36:14;;;;;;;;;;;;;;;23.85;22.56;102078.22;1829936;78;20290;-76
2021/03/28 13:38:47;;;;;;;;;;;;;;;24.24;22.19;102075.58;1830300;78;20286;-82
2021/03/28 13:41:30;;;;;;;;;;;;;;;24.20;21.48;102077.70;1829176;78;21054;-81
2021/03/28 13:44:09;;;;;;;;;;;;;;;23.92;21.51;102075.30;1819507;78;21235;-74
2021/03/28 13:46:40;;;;;;;;;;;;;;;23.30;21.72;102073.03;1797360;79;20137;-75
2021/03/28 13:49:10;;;;;;;;;;;;;;;22.71;22.96;102081.45;1796580;79;20237;-75
2021/03/28 13:51:38;;;;;;;;;;;;;;;22.33;23.68;102070.95;1775277;80;20232;-77
2021/03/28 13:54:06;;;;;;;;;;;;;;;22.06;24.14;102070.37;1797191;80;21189;-78
2021/03/28 13:56:48;;;;;;;;;;;;;;;21.84;24.33;102068.84;1797351;79;20304;-77
2021/03/28 13:59:25;;;;;;;;;;;;;;;21.77;24.49;102070.36;1775623;80;20229;-76
2021/03/28 14:02:19;;;;;;;;;;;;;;;21.94;24.42;102068.38;1797172;80;20507;-74
2021/03/28 14:04:58;;;;;;;;;;;;;;;22.49;23.94;102065.41;1796732;79;20232;-77
2021/03/28 14:07:42;;;;;;;;;;;;;;;23.34;22.84;102063.81;1778354;79;20245;-80
2021/03/28 14:10:14;;;;;;;;;;;;;;;23.49;22.21;102060.17;1798007;78;20220;-77
2021/03/28 14:12:56;;;;;;;;;;;;;;;24.00;22.11;102063.42;1799486;79;20145;-80
2021/03/28 14:15:36;;;;;;;;;;;;;;;24.40;21.82;102058.44;1799497;79;20526;-77
2021/03/28 14:18:23;;;;;;;;;;;;;;;24.75;21.32;102062.75;1799836;79;20641;-77
2021/03/28 14:21:13;;;;;;;;;;;;;;;24.92;21.06;102055.72;1799426;79;20173;-76
2021/03/28 14:23:44;;;;;;;;;;;;;;;24.32;21.43;102060.19;1767905;79;20309;-76